Kezdőlap
METAR-TAF:

METAR-TAF

Repülőterek :

Wrocław, Lengyelország

földrajzi szélesség: 51-06N, földrajzi hosszúság: 016-53E, magasság: 120 m

Jelenlegi meteorológiai megfigyelések

A jelentés 15 perccel ezelõtt készült, 17:30 UTC
Észak-északkeleti szél 6 kt
Hőmérséklet -8°C
Páratartalom 52%
Légköri nyomás 1029 hPa
Látótávolság 10 km, vagy több
Kevés felhő 4100 lábon

METAR: EPWR 251730Z 02006KT 9999 FEW041 M08/M16 Q1029

Idő: 18:45 (17:45 UTC)

Előrejelzés

A jelentés 15 perccel ezelõtt készült, 17:30 UTC
Az előrejelzés 25-én 18 óra UTC és 26-én 18 óra UTC között érvényes
Észak-északkeleti szél 5 kt
Látótávolság 10 km, vagy több
felhőtlen 1500 m magasságban, és nincs gomolyfelhõ

TAF: EPWR 251730Z 2518/2618 03005KT CAVOK

Meteorológiai megfigyelések és előrejelzések több, mint 4000 repülőtéren (METAR és TAF jelentéseket).

A térképen piros és sárga pontok jelzik az elérhető meteorológiai állomásokat.

Mozgassa az egeret a pont fölött, hogy megjelenjen az állomás neve.

Azután kattintson az időjárási megfigyelések és előrejelzések megtekintéséhez.

A térkép megváltoztatása: kattintson a fekete keresztel jelölt zöld gombra ráközelítéshez, a vonallal jelölt zöld gombra távolításhoz, vagy a zöld nyilakra a szomszédos térképek eléréséhez.


METAR-TAF: